sensor_id;sensor_type;location;lat;lon;timestamp;P1;durP1;ratioP1;P2;durP2;ratioP2
65835;SDS011;52595;51.608;7.216;2023-05-10T00:01:01;13.88;;;7.90;;
65835;SDS011;52595;51.608;7.216;2023-05-10T00:03:26;11.85;;;7.18;;
65835;SDS011;52595;51.608;7.216;2023-05-10T00:05:51;13.60;;;7.10;;
65835;SDS011;52595;51.608;7.216;2023-05-10T00:08:17;10.55;;;5.68;;
65835;SDS011;52595;51.608;7.216;2023-05-10T00:10:42;8.50;;;4.93;;
65835;SDS011;52595;51.608;7.216;2023-05-10T00:13:08;7.65;;;4.30;;
65835;SDS011;52595;51.608;7.216;2023-05-10T00:15:33;8.68;;;4.80;;
65835;SDS011;52595;51.608;7.216;2023-05-10T00:17:59;9.48;;;5.10;;
65835;SDS011;52595;51.608;7.216;2023-05-10T00:20:25;10.73;;;5.35;;
65835;SDS011;52595;51.608;7.216;2023-05-10T00:22:51;14.52;;;5.80;;
65835;SDS011;52595;51.608;7.216;2023-05-10T00:25:16;10.52;;;5.13;;
65835;SDS011;52595;51.608;7.216;2023-05-10T00:27:41;10.20;;;5.03;;
65835;SDS011;52595;51.608;7.216;2023-05-10T00:30:07;12.85;;;5.97;;
65835;SDS011;52595;51.608;7.216;2023-05-10T00:32:33;11.80;;;5.50;;
65835;SDS011;52595;51.608;7.216;2023-05-10T00:34:58;14.98;;;5.93;;
65835;SDS011;52595;51.608;7.216;2023-05-10T00:37:24;13.40;;;5.75;;
65835;SDS011;52595;51.608;7.216;2023-05-10T00:39:49;13.85;;;6.22;;
65835;SDS011;52595;51.608;7.216;2023-05-10T00:42:15;12.65;;;5.78;;
65835;SDS011;52595;51.608;7.216;2023-05-10T00:44:40;12.25;;;5.78;;
65835;SDS011;52595;51.608;7.216;2023-05-10T00:47:05;11.73;;;5.93;;
65835;SDS011;52595;51.608;7.216;2023-05-10T00:49:31;12.38;;;5.72;;
65835;SDS011;52595;51.608;7.216;2023-05-10T00:51:57;14.43;;;6.68;;
65835;SDS011;52595;51.608;7.216;2023-05-10T00:54:23;12.27;;;6.07;;
65835;SDS011;52595;51.608;7.216;2023-05-10T00:56:48;15.68;;;7.00;;
65835;SDS011;52595;51.608;7.216;2023-05-10T00:59:17;15.88;;;7.15;;
65835;SDS011;52595;51.608;7.216;2023-05-10T01:01:44;14.80;;;7.53;;
65835;SDS011;52595;51.608;7.216;2023-05-10T01:04:12;16.55;;;7.97;;
65835;SDS011;52595;51.608;7.216;2023-05-10T01:06:39;14.52;;;7.55;;
65835;SDS011;52595;51.608;7.216;2023-05-10T01:15:17;15.95;;;7.10;;
65835;SDS011;52595;51.608;7.216;2023-05-10T01:17:44;14.48;;;7.05;;
65835;SDS011;52595;51.608;7.216;2023-05-10T01:20:11;12.75;;;6.05;;
65835;SDS011;52595;51.608;7.216;2023-05-10T01:28:07;13.25;;;6.10;;
65835;SDS011;52595;51.608;7.216;2023-05-10T01:31:12;12.65;;;5.70;;
65835;SDS011;52595;51.608;7.216;2023-05-10T01:34:06;12.23;;;6.00;;
65835;SDS011;52595;51.608;7.216;2023-05-10T01:36:48;14.48;;;6.68;;
65835;SDS011;52595;51.608;7.216;2023-05-10T01:41:58;11.55;;;5.00;;
65835;SDS011;52595;51.608;7.216;2023-05-10T01:44:29;9.77;;;4.68;;
65835;SDS011;52595;51.608;7.216;2023-05-10T01:47:04;7.28;;;3.65;;
65835;SDS011;52595;51.608;7.216;2023-05-10T01:49:34;6.75;;;3.53;;
65835;SDS011;52595;51.608;7.216;2023-05-10T01:52:10;6.60;;;3.20;;
65835;SDS011;52595;51.608;7.216;2023-05-10T01:54:38;7.30;;;3.85;;
65835;SDS011;52595;51.608;7.216;2023-05-10T01:57:09;12.38;;;4.32;;
65835;SDS011;52595;51.608;7.216;2023-05-10T01:59:38;8.15;;;4.00;;
65835;SDS011;52595;51.608;7.216;2023-05-10T02:02:08;8.45;;;3.58;;
65835;SDS011;52595;51.608;7.216;2023-05-10T02:04:38;7.40;;;3.80;;
65835;SDS011;52595;51.608;7.216;2023-05-10T02:07:06;8.45;;;3.50;;
65835;SDS011;52595;51.608;7.216;2023-05-10T02:09:32;6.57;;;3.25;;
65835;SDS011;52595;51.608;7.216;2023-05-10T02:11:59;7.55;;;3.40;;
65835;SDS011;52595;51.608;7.216;2023-05-10T02:14:27;6.53;;;3.55;;
65835;SDS011;52595;51.608;7.216;2023-05-10T02:16:55;6.93;;;3.28;;
65835;SDS011;52595;51.608;7.216;2023-05-10T02:19:22;6.75;;;3.38;;
65835;SDS011;52595;51.608;7.216;2023-05-10T02:21:49;7.30;;;3.42;;
65835;SDS011;52595;51.608;7.216;2023-05-10T02:24:16;6.15;;;3.03;;
65835;SDS011;52595;51.608;7.216;2023-05-10T02:26:43;7.22;;;3.60;;
65835;SDS011;52595;51.608;7.216;2023-05-10T02:29:10;5.82;;;3.10;;
65835;SDS011;52595;51.608;7.216;2023-05-10T02:31:37;6.63;;;3.60;;
65835;SDS011;52595;51.608;7.216;2023-05-10T02:34:03;7.90;;;3.58;;
65835;SDS011;52595;51.608;7.216;2023-05-10T02:36:31;8.32;;;3.45;;
65835;SDS011;52595;51.608;7.216;2023-05-10T02:38:58;9.27;;;3.70;;
65835;SDS011;52595;51.608;7.216;2023-05-10T02:41:26;6.25;;;3.40;;
65835;SDS011;52595;51.608;7.216;2023-05-10T02:43:54;7.22;;;3.63;;
65835;SDS011;52595;51.608;7.216;2023-05-10T02:46:22;8.20;;;3.47;;
65835;SDS011;52595;51.608;7.216;2023-05-10T02:48:48;8.27;;;3.60;;
65835;SDS011;52595;51.608;7.216;2023-05-10T02:51:13;7.90;;;3.70;;
65835;SDS011;52595;51.608;7.216;2023-05-10T02:53:42;6.95;;;3.15;;
65835;SDS011;52595;51.608;7.216;2023-05-10T02:56:11;7.80;;;3.70;;
65835;SDS011;52595;51.608;7.216;2023-05-10T02:58:40;10.65;;;3.70;;
65835;SDS011;52595;51.608;7.216;2023-05-10T03:01:05;9.95;;;3.72;;
65835;SDS011;52595;51.608;7.216;2023-05-10T03:03:32;12.68;;;4.57;;
65835;SDS011;52595;51.608;7.216;2023-05-10T03:05:58;8.65;;;4.38;;
65835;SDS011;52595;51.608;7.216;2023-05-10T03:08:23;10.50;;;4.90;;
65835;SDS011;52595;51.608;7.216;2023-05-10T03:11:01;11.70;;;5.20;;
65835;SDS011;52595;51.608;7.216;2023-05-10T03:13:52;11.48;;;5.43;;
65835;SDS011;52595;51.608;7.216;2023-05-10T03:16:42;13.80;;;5.53;;
65835;SDS011;52595;51.608;7.216;2023-05-10T03:19:14;15.00;;;6.67;;
65835;SDS011;52595;51.608;7.216;2023-05-10T03:21:45;14.50;;;6.30;;
65835;SDS011;52595;51.608;7.216;2023-05-10T03:24:16;17.25;;;6.70;;
65835;SDS011;52595;51.608;7.216;2023-05-10T03:26:43;17.13;;;7.15;;
65835;SDS011;52595;51.608;7.216;2023-05-10T03:29:11;18.85;;;7.78;;
65835;SDS011;52595;51.608;7.216;2023-05-10T03:31:39;19.67;;;7.90;;
65835;SDS011;52595;51.608;7.216;2023-05-10T03:34:04;20.83;;;8.50;;
65835;SDS011;52595;51.608;7.216;2023-05-10T03:36:31;23.85;;;9.10;;
65835;SDS011;52595;51.608;7.216;2023-05-10T03:38:56;22.60;;;9.90;;
65835;SDS011;52595;51.608;7.216;2023-05-10T03:41:21;26.65;;;10.10;;
65835;SDS011;52595;51.608;7.216;2023-05-10T03:43:47;28.17;;;10.57;;
65835;SDS011;52595;51.608;7.216;2023-05-10T03:46:12;24.15;;;9.57;;
65835;SDS011;52595;51.608;7.216;2023-05-10T03:48:38;31.38;;;11.80;;
65835;SDS011;52595;51.608;7.216;2023-05-10T03:51:03;31.67;;;12.27;;
65835;SDS011;52595;51.608;7.216;2023-05-10T03:53:28;37.58;;;13.20;;
65835;SDS011;52595;51.608;7.216;2023-05-10T03:55:54;35.42;;;13.80;;
65835;SDS011;52595;51.608;7.216;2023-05-10T03:58:19;43.53;;;15.68;;
65835;SDS011;52595;51.608;7.216;2023-05-10T04:00:45;42.65;;;15.52;;
65835;SDS011;52595;51.608;7.216;2023-05-10T04:03:13;43.25;;;15.85;;
65835;SDS011;52595;51.608;7.216;2023-05-10T04:05:38;48.97;;;17.13;;
65835;SDS011;52595;51.608;7.216;2023-05-10T04:08:04;56.70;;;17.67;;
65835;SDS011;52595;51.608;7.216;2023-05-10T04:10:30;52.40;;;18.17;;
65835;SDS011;52595;51.608;7.216;2023-05-10T04:12:56;51.03;;;17.10;;
65835;SDS011;52595;51.608;7.216;2023-05-10T04:15:21;51.30;;;18.08;;
65835;SDS011;52595;51.608;7.216;2023-05-10T04:17:47;51.00;;;16.95;;
65835;SDS011;52595;51.608;7.216;2023-05-10T04:20:13;50.45;;;16.95;;
65835;SDS011;52595;51.608;7.216;2023-05-10T04:22:38;52.28;;;17.20;;
65835;SDS011;52595;51.608;7.216;2023-05-10T04:25:03;53.53;;;16.80;;
65835;SDS011;52595;51.608;7.216;2023-05-10T04:27:29;55.03;;;16.88;;
65835;SDS011;52595;51.608;7.216;2023-05-10T04:29:55;51.85;;;16.65;;
65835;SDS011;52595;51.608;7.216;2023-05-10T04:32:21;59.83;;;17.52;;
65835;SDS011;52595;51.608;7.216;2023-05-10T04:34:46;67.38;;;18.52;;
65835;SDS011;52595;51.608;7.216;2023-05-10T04:37:12;66.70;;;19.98;;
65835;SDS011;52595;51.608;7.216;2023-05-10T04:39:37;62.78;;;19.45;;
65835;SDS011;52595;51.608;7.216;2023-05-10T04:42:03;67.65;;;20.95;;
65835;SDS011;52595;51.608;7.216;2023-05-10T04:44:30;66.72;;;20.58;;
65835;SDS011;52595;51.608;7.216;2023-05-10T04:46:56;68.05;;;21.73;;
65835;SDS011;52595;51.608;7.216;2023-05-10T04:49:21;73.38;;;22.50;;
65835;SDS011;52595;51.608;7.216;2023-05-10T04:51:47;81.03;;;23.50;;
65835;SDS011;52595;51.608;7.216;2023-05-10T04:54:12;85.95;;;24.65;;
65835;SDS011;52595;51.608;7.216;2023-05-10T04:56:38;91.40;;;25.50;;
65835;SDS011;52595;51.608;7.216;2023-05-10T04:59:03;100.25;;;27.10;;
65835;SDS011;52595;51.608;7.216;2023-05-10T05:01:29;91.68;;;27.05;;
65835;SDS011;52595;51.608;7.216;2023-05-10T05:03:54;95.43;;;26.42;;
65835;SDS011;52595;51.608;7.216;2023-05-10T05:06:20;100.40;;;27.23;;
65835;SDS011;52595;51.608;7.216;2023-05-10T05:08:49;103.03;;;28.52;;
65835;SDS011;52595;51.608;7.216;2023-05-10T05:11:15;104.13;;;28.77;;
65835;SDS011;52595;51.608;7.216;2023-05-10T05:13:40;90.32;;;27.85;;
65835;SDS011;52595;51.608;7.216;2023-05-10T05:16:06;94.35;;;27.13;;
65835;SDS011;52595;51.608;7.216;2023-05-10T05:18:31;92.70;;;27.90;;
65835;SDS011;52595;51.608;7.216;2023-05-10T05:20:56;83.97;;;27.13;;
65835;SDS011;52595;51.608;7.216;2023-05-10T05:23:22;86.70;;;28.05;;
65835;SDS011;52595;51.608;7.216;2023-05-10T05:25:50;92.18;;;27.92;;
65835;SDS011;52595;51.608;7.216;2023-05-10T05:28:16;86.50;;;26.85;;
65835;SDS011;52595;51.608;7.216;2023-05-10T05:30:42;85.07;;;27.95;;
65835;SDS011;52595;51.608;7.216;2023-05-10T05:33:07;83.10;;;27.00;;
65835;SDS011;52595;51.608;7.216;2023-05-10T05:35:33;93.65;;;28.33;;
65835;SDS011;52595;51.608;7.216;2023-05-10T05:37:58;81.55;;;26.67;;
65835;SDS011;52595;51.608;7.216;2023-05-10T05:40:23;92.38;;;28.67;;
65835;SDS011;52595;51.608;7.216;2023-05-10T05:42:49;94.75;;;28.05;;
65835;SDS011;52595;51.608;7.216;2023-05-10T05:45:14;89.35;;;27.80;;
65835;SDS011;52595;51.608;7.216;2023-05-10T05:47:40;89.20;;;27.85;;
65835;SDS011;52595;51.608;7.216;2023-05-10T05:50:06;95.55;;;29.42;;
65835;SDS011;52595;51.608;7.216;2023-05-10T05:52:31;83.47;;;28.08;;
65835;SDS011;52595;51.608;7.216;2023-05-10T05:54:57;81.13;;;26.90;;
65835;SDS011;52595;51.608;7.216;2023-05-10T05:57:22;80.28;;;27.20;;
65835;SDS011;52595;51.608;7.216;2023-05-10T05:59:48;91.78;;;27.95;;
65835;SDS011;52595;51.608;7.216;2023-05-10T06:02:13;85.15;;;28.02;;
65835;SDS011;52595;51.608;7.216;2023-05-10T06:04:39;88.22;;;27.15;;
65835;SDS011;52595;51.608;7.216;2023-05-10T06:07:04;85.50;;;26.58;;
65835;SDS011;52595;51.608;7.216;2023-05-10T06:09:30;78.28;;;25.58;;
65835;SDS011;52595;51.608;7.216;2023-05-10T06:11:55;90.50;;;29.15;;
65835;SDS011;52595;51.608;7.216;2023-05-10T06:14:21;85.13;;;27.20;;
65835;SDS011;52595;51.608;7.216;2023-05-10T06:16:46;79.40;;;27.25;;
65835;SDS011;52595;51.608;7.216;2023-05-10T06:19:12;88.30;;;29.33;;
65835;SDS011;52595;51.608;7.216;2023-05-10T06:21:37;86.93;;;29.33;;
65835;SDS011;52595;51.608;7.216;2023-05-10T06:24:03;92.43;;;29.50;;
65835;SDS011;52595;51.608;7.216;2023-05-10T06:26:29;81.38;;;29.08;;
65835;SDS011;52595;51.608;7.216;2023-05-10T06:28:54;86.03;;;29.25;;
65835;SDS011;52595;51.608;7.216;2023-05-10T06:31:19;89.75;;;28.58;;
65835;SDS011;52595;51.608;7.216;2023-05-10T06:33:45;88.82;;;27.92;;
65835;SDS011;52595;51.608;7.216;2023-05-10T06:36:11;82.18;;;28.75;;
65835;SDS011;52595;51.608;7.216;2023-05-10T06:38:36;79.70;;;27.58;;
65835;SDS011;52595;51.608;7.216;2023-05-10T06:41:02;77.82;;;27.35;;
65835;SDS011;52595;51.608;7.216;2023-05-10T06:43:27;68.28;;;26.50;;
65835;SDS011;52595;51.608;7.216;2023-05-10T06:45:53;66.25;;;26.50;;
65835;SDS011;52595;51.608;7.216;2023-05-10T06:48:19;65.13;;;25.02;;
65835;SDS011;52595;51.608;7.216;2023-05-10T06:50:44;63.05;;;24.92;;
65835;SDS011;52595;51.608;7.216;2023-05-10T06:53:10;64.68;;;25.38;;
65835;SDS011;52595;51.608;7.216;2023-05-10T06:55:36;67.85;;;25.80;;
65835;SDS011;52595;51.608;7.216;2023-05-10T06:58:02;57.15;;;24.45;;
65835;SDS011;52595;51.608;7.216;2023-05-10T07:00:27;61.67;;;25.30;;
65835;SDS011;52595;51.608;7.216;2023-05-10T07:02:52;63.40;;;27.38;;
65835;SDS011;52595;51.608;7.216;2023-05-10T07:05:18;67.25;;;28.60;;
65835;SDS011;52595;51.608;7.216;2023-05-10T07:07:43;68.57;;;26.50;;
65835;SDS011;52595;51.608;7.216;2023-05-10T07:10:09;57.33;;;26.13;;
65835;SDS011;52595;51.608;7.216;2023-05-10T07:12:34;58.40;;;26.25;;
65835;SDS011;52595;51.608;7.216;2023-05-10T07:15:00;61.03;;;26.40;;
65835;SDS011;52595;51.608;7.216;2023-05-10T07:17:25;58.65;;;25.30;;
65835;SDS011;52595;51.608;7.216;2023-05-10T07:19:51;59.20;;;25.58;;
65835;SDS011;52595;51.608;7.216;2023-05-10T07:22:16;50.60;;;24.13;;
65835;SDS011;52595;51.608;7.216;2023-05-10T07:24:42;49.90;;;23.52;;
65835;SDS011;52595;51.608;7.216;2023-05-10T07:27:07;45.13;;;20.05;;
65835;SDS011;52595;51.608;7.216;2023-05-10T07:29:33;44.67;;;21.75;;
65835;SDS011;52595;51.608;7.216;2023-05-10T07:31:59;46.10;;;22.70;;
65835;SDS011;52595;51.608;7.216;2023-05-10T07:34:25;49.75;;;23.23;;
65835;SDS011;52595;51.608;7.216;2023-05-10T07:36:51;41.97;;;22.17;;
65835;SDS011;52595;51.608;7.216;2023-05-10T07:39:16;43.40;;;22.25;;
65835;SDS011;52595;51.608;7.216;2023-05-10T07:41:42;40.40;;;21.35;;
65835;SDS011;52595;51.608;7.216;2023-05-10T07:44:07;40.60;;;20.48;;
65835;SDS011;52595;51.608;7.216;2023-05-10T07:46:32;39.70;;;21.88;;
65835;SDS011;52595;51.608;7.216;2023-05-10T07:48:58;38.72;;;19.58;;
65835;SDS011;52595;51.608;7.216;2023-05-10T07:51:23;35.00;;;18.70;;
65835;SDS011;52595;51.608;7.216;2023-05-10T07:53:49;39.15;;;20.60;;
65835;SDS011;52595;51.608;7.216;2023-05-10T07:56:24;43.10;;;22.00;;
65835;SDS011;52595;51.608;7.216;2023-05-10T07:58:52;42.75;;;21.17;;
65835;SDS011;52595;51.608;7.216;2023-05-10T08:01:19;42.25;;;21.55;;
65835;SDS011;52595;51.608;7.216;2023-05-10T08:03:44;42.08;;;21.42;;
65835;SDS011;52595;51.608;7.216;2023-05-10T08:06:10;40.63;;;19.63;;
65835;SDS011;52595;51.608;7.216;2023-05-10T08:08:36;43.22;;;21.58;;
65835;SDS011;52595;51.608;7.216;2023-05-10T08:11:01;38.00;;;20.60;;
65835;SDS011;52595;51.608;7.216;2023-05-10T08:13:26;37.05;;;19.95;;
65835;SDS011;52595;51.608;7.216;2023-05-10T08:15:52;35.38;;;20.05;;
65835;SDS011;52595;51.608;7.216;2023-05-10T08:18:18;38.03;;;20.27;;
65835;SDS011;52595;51.608;7.216;2023-05-10T08:20:44;33.72;;;18.75;;
65835;SDS011;52595;51.608;7.216;2023-05-10T08:23:09;32.97;;;18.60;;
65835;SDS011;52595;51.608;7.216;2023-05-10T08:25:35;36.42;;;19.77;;
65835;SDS011;52595;51.608;7.216;2023-05-10T08:28:00;36.90;;;19.90;;
65835;SDS011;52595;51.608;7.216;2023-05-10T08:30:25;34.90;;;19.00;;
65835;SDS011;52595;51.608;7.216;2023-05-10T08:32:51;33.85;;;19.30;;
65835;SDS011;52595;51.608;7.216;2023-05-10T08:35:16;31.40;;;19.15;;
65835;SDS011;52595;51.608;7.216;2023-05-10T08:37:41;32.08;;;17.30;;
65835;SDS011;52595;51.608;7.216;2023-05-10T08:40:07;29.85;;;18.70;;
65835;SDS011;52595;51.608;7.216;2023-05-10T08:42:36;28.98;;;16.52;;
65835;SDS011;52595;51.608;7.216;2023-05-10T08:45:05;35.08;;;18.30;;
65835;SDS011;52595;51.608;7.216;2023-05-10T08:47:35;30.45;;;17.02;;
65835;SDS011;52595;51.608;7.216;2023-05-10T08:50:03;34.08;;;17.92;;
65835;SDS011;52595;51.608;7.216;2023-05-10T08:52:28;33.03;;;18.23;;
65835;SDS011;52595;51.608;7.216;2023-05-10T08:54:56;31.02;;;18.67;;
65835;SDS011;52595;51.608;7.216;2023-05-10T08:57:22;39.40;;;21.75;;
65835;SDS011;52595;51.608;7.216;2023-05-10T08:59:47;39.70;;;18.52;;
65835;SDS011;52595;51.608;7.216;2023-05-10T09:02:13;38.03;;;19.60;;
65835;SDS011;52595;51.608;7.216;2023-05-10T09:04:38;38.25;;;19.33;;
65835;SDS011;52595;51.608;7.216;2023-05-10T09:07:04;36.88;;;19.85;;
65835;SDS011;52595;51.608;7.216;2023-05-10T09:09:30;36.75;;;20.00;;
65835;SDS011;52595;51.608;7.216;2023-05-10T09:11:56;39.67;;;21.85;;
65835;SDS011;52595;51.608;7.216;2023-05-10T09:14:23;42.83;;;22.80;;
65835;SDS011;52595;51.608;7.216;2023-05-10T09:16:49;43.58;;;23.73;;
65835;SDS011;52595;51.608;7.216;2023-05-10T09:19:15;36.63;;;19.17;;
65835;SDS011;52595;51.608;7.216;2023-05-10T09:21:40;33.42;;;18.48;;
65835;SDS011;52595;51.608;7.216;2023-05-10T09:24:06;30.85;;;16.67;;
65835;SDS011;52595;51.608;7.216;2023-05-10T09:26:33;29.77;;;16.48;;
65835;SDS011;52595;51.608;7.216;2023-05-10T09:29:00;25.85;;;14.73;;
65835;SDS011;52595;51.608;7.216;2023-05-10T09:31:43;26.60;;;15.55;;
65835;SDS011;52595;51.608;7.216;2023-05-10T09:34:19;26.17;;;15.05;;
65835;SDS011;52595;51.608;7.216;2023-05-10T09:37:04;27.63;;;16.25;;
65835;SDS011;52595;51.608;7.216;2023-05-10T09:39:30;25.63;;;15.10;;
65835;SDS011;52595;51.608;7.216;2023-05-10T09:41:57;29.80;;;15.73;;
65835;SDS011;52595;51.608;7.216;2023-05-10T09:44:25;30.98;;;17.77;;
65835;SDS011;52595;51.608;7.216;2023-05-10T09:46:51;28.63;;;16.70;;
65835;SDS011;52595;51.608;7.216;2023-05-10T09:49:17;26.17;;;16.63;;
65835;SDS011;52595;51.608;7.216;2023-05-10T09:51:44;28.13;;;16.60;;
65835;SDS011;52595;51.608;7.216;2023-05-10T09:56:37;24.35;;;13.15;;
65835;SDS011;52595;51.608;7.216;2023-05-10T09:59:05;23.77;;;13.38;;
65835;SDS011;52595;51.608;7.216;2023-05-10T10:01:31;24.88;;;13.55;;
65835;SDS011;52595;51.608;7.216;2023-05-10T10:03:56;22.33;;;13.75;;
65835;SDS011;52595;51.608;7.216;2023-05-10T10:06:23;22.73;;;12.73;;
65835;SDS011;52595;51.608;7.216;2023-05-10T10:08:49;20.63;;;12.15;;
65835;SDS011;52595;51.608;7.216;2023-05-10T10:11:16;25.92;;;13.85;;
65835;SDS011;52595;51.608;7.216;2023-05-10T10:13:42;25.35;;;15.13;;
65835;SDS011;52595;51.608;7.216;2023-05-10T10:16:08;24.70;;;14.07;;
65835;SDS011;52595;51.608;7.216;2023-05-10T10:18:35;26.88;;;13.68;;
65835;SDS011;52595;51.608;7.216;2023-05-10T10:21:04;29.15;;;15.63;;
65835;SDS011;52595;51.608;7.216;2023-05-10T10:23:34;34.42;;;18.23;;
65835;SDS011;52595;51.608;7.216;2023-05-10T10:25:59;36.35;;;19.05;;
65835;SDS011;52595;51.608;7.216;2023-05-10T10:29:10;39.55;;;21.15;;
65835;SDS011;52595;51.608;7.216;2023-05-10T10:31:39;35.78;;;20.20;;
65835;SDS011;52595;51.608;7.216;2023-05-10T10:34:10;37.35;;;20.65;;
65835;SDS011;52595;51.608;7.216;2023-05-10T10:36:46;43.60;;;20.67;;
65835;SDS011;52595;51.608;7.216;2023-05-10T10:39:12;34.47;;;17.17;;
65835;SDS011;52595;51.608;7.216;2023-05-10T10:41:39;33.60;;;17.58;;
65835;SDS011;52595;51.608;7.216;2023-05-10T10:49:26;26.63;;;15.45;;
65835;SDS011;52595;51.608;7.216;2023-05-10T10:57:28;27.33;;;14.32;;
65835;SDS011;52595;51.608;7.216;2023-05-10T11:02:52;23.08;;;12.75;;
65835;SDS011;52595;51.608;7.216;2023-05-10T11:10:21;27.10;;;13.43;;
65835;SDS011;52595;51.608;7.216;2023-05-10T11:13:04;25.52;;;15.70;;
65835;SDS011;52595;51.608;7.216;2023-05-10T11:15:37;29.33;;;17.08;;
65835;SDS011;52595;51.608;7.216;2023-05-10T11:18:16;31.52;;;18.73;;
65835;SDS011;52595;51.608;7.216;2023-05-10T11:20:58;31.27;;;19.15;;
65835;SDS011;52595;51.608;7.216;2023-05-10T11:26:08;29.13;;;16.92;;
65835;SDS011;52595;51.608;7.216;2023-05-10T11:28:34;28.95;;;16.77;;
65835;SDS011;52595;51.608;7.216;2023-05-10T11:31:06;24.63;;;13.70;;
65835;SDS011;52595;51.608;7.216;2023-05-10T11:33:31;26.40;;;14.32;;
65835;SDS011;52595;51.608;7.216;2023-05-10T11:36:25;23.63;;;13.18;;
65835;SDS011;52595;51.608;7.216;2023-05-10T11:38:52;25.00;;;14.18;;
65835;SDS011;52595;51.608;7.216;2023-05-10T11:41:19;25.17;;;13.85;;
65835;SDS011;52595;51.608;7.216;2023-05-10T11:43:51;25.00;;;12.48;;
65835;SDS011;52595;51.608;7.216;2023-05-10T11:46:20;22.60;;;12.93;;
65835;SDS011;52595;51.608;7.216;2023-05-10T11:48:49;20.25;;;11.13;;
65835;SDS011;52595;51.608;7.216;2023-05-10T11:51:19;17.53;;;10.27;;
65835;SDS011;52595;51.608;7.216;2023-05-10T11:53:46;17.45;;;10.65;;
65835;SDS011;52595;51.608;7.216;2023-05-10T11:56:11;19.13;;;11.00;;
65835;SDS011;52595;51.608;7.216;2023-05-10T11:58:37;16.70;;;9.32;;
65835;SDS011;52595;51.608;7.216;2023-05-10T12:01:04;15.57;;;8.43;;
65835;SDS011;52595;51.608;7.216;2023-05-10T12:03:30;15.02;;;8.85;;
65835;SDS011;52595;51.608;7.216;2023-05-10T12:05:57;18.55;;;9.50;;
65835;SDS011;52595;51.608;7.216;2023-05-10T12:08:24;13.00;;;8.18;;
65835;SDS011;52595;51.608;7.216;2023-05-10T12:10:51;13.48;;;7.90;;
65835;SDS011;52595;51.608;7.216;2023-05-10T12:13:18;15.00;;;9.05;;
65835;SDS011;52595;51.608;7.216;2023-05-10T12:15:45;13.07;;;7.25;;
65835;SDS011;52595;51.608;7.216;2023-05-10T12:18:11;14.05;;;8.80;;
65835;SDS011;52595;51.608;7.216;2023-05-10T12:20:37;17.23;;;8.93;;
65835;SDS011;52595;51.608;7.216;2023-05-10T12:23:04;17.30;;;9.95;;
65835;SDS011;52595;51.608;7.216;2023-05-10T12:25:31;15.32;;;10.32;;
65835;SDS011;52595;51.608;7.216;2023-05-10T12:27:58;14.23;;;9.90;;
65835;SDS011;52595;51.608;7.216;2023-05-10T12:30:28;16.50;;;9.73;;
65835;SDS011;52595;51.608;7.216;2023-05-10T12:33:02;16.65;;;9.60;;
65835;SDS011;52595;51.608;7.216;2023-05-10T12:35:32;18.10;;;10.43;;
65835;SDS011;52595;51.608;7.216;2023-05-10T12:37:58;19.85;;;10.00;;
65835;SDS011;52595;51.608;7.216;2023-05-10T12:40:24;18.30;;;10.77;;
65835;SDS011;52595;51.608;7.216;2023-05-10T12:42:49;18.83;;;10.23;;
65835;SDS011;52595;51.608;7.216;2023-05-10T12:45:16;16.67;;;10.60;;
65835;SDS011;52595;51.608;7.216;2023-05-10T12:47:42;19.48;;;11.48;;
65835;SDS011;52595;51.608;7.216;2023-05-10T12:50:08;20.73;;;11.85;;
65835;SDS011;52595;51.608;7.216;2023-05-10T12:52:34;20.63;;;12.48;;
65835;SDS011;52595;51.608;7.216;2023-05-10T12:55:00;21.30;;;12.27;;
65835;SDS011;52595;51.608;7.216;2023-05-10T12:57:26;18.77;;;12.50;;
65835;SDS011;52595;51.608;7.216;2023-05-10T12:59:52;18.38;;;12.48;;
65835;SDS011;52595;51.608;7.216;2023-05-10T13:02:17;21.45;;;12.55;;
65835;SDS011;52595;51.608;7.216;2023-05-10T13:04:43;21.48;;;12.35;;
65835;SDS011;52595;51.608;7.216;2023-05-10T13:07:09;17.23;;;11.52;;
65835;SDS011;52595;51.608;7.216;2023-05-10T13:09:35;19.58;;;12.52;;
65835;SDS011;52595;51.608;7.216;2023-05-10T13:12:01;18.98;;;11.18;;
65835;SDS011;52595;51.608;7.216;2023-05-10T13:14:26;19.38;;;11.32;;
65835;SDS011;52595;51.608;7.216;2023-05-10T13:16:52;19.98;;;12.95;;
65835;SDS011;52595;51.608;7.216;2023-05-10T13:19:18;20.73;;;12.15;;
65835;SDS011;52595;51.608;7.216;2023-05-10T13:21:44;24.42;;;12.40;;
65835;SDS011;52595;51.608;7.216;2023-05-10T13:24:09;18.80;;;11.75;;
65835;SDS011;52595;51.608;7.216;2023-05-10T13:26:35;15.75;;;11.75;;
65835;SDS011;52595;51.608;7.216;2023-05-10T13:29:01;19.75;;;12.50;;
65835;SDS011;52595;51.608;7.216;2023-05-10T13:31:27;19.23;;;12.13;;
65835;SDS011;52595;51.608;7.216;2023-05-10T13:33:53;19.35;;;11.98;;
65835;SDS011;52595;51.608;7.216;2023-05-10T13:36:18;15.20;;;10.60;;
65835;SDS011;52595;51.608;7.216;2023-05-10T13:38:43;15.25;;;10.15;;
65835;SDS011;52595;51.608;7.216;2023-05-10T13:41:09;16.27;;;10.40;;
65835;SDS011;52595;51.608;7.216;2023-05-10T13:43:35;13.32;;;10.43;;
65835;SDS011;52595;51.608;7.216;2023-05-10T13:46:01;16.25;;;11.57;;
65835;SDS011;52595;51.608;7.216;2023-05-10T13:48:26;15.30;;;10.57;;
65835;SDS011;52595;51.608;7.216;2023-05-10T13:50:52;15.70;;;9.15;;
65835;SDS011;52595;51.608;7.216;2023-05-10T13:53:17;12.48;;;9.18;;
65835;SDS011;52595;51.608;7.216;2023-05-10T13:55:43;15.55;;;9.43;;
65835;SDS011;52595;51.608;7.216;2023-05-10T13:58:08;13.35;;;8.93;;
65835;SDS011;52595;51.608;7.216;2023-05-10T14:00:34;11.13;;;7.93;;
65835;SDS011;52595;51.608;7.216;2023-05-10T14:02:59;12.60;;;7.30;;
65835;SDS011;52595;51.608;7.216;2023-05-10T14:05:25;9.43;;;6.40;;
65835;SDS011;52595;51.608;7.216;2023-05-10T14:07:50;9.07;;;6.30;;
65835;SDS011;52595;51.608;7.216;2023-05-10T14:10:16;11.00;;;5.97;;
65835;SDS011;52595;51.608;7.216;2023-05-10T14:12:41;9.88;;;6.00;;
65835;SDS011;52595;51.608;7.216;2023-05-10T14:15:07;12.43;;;5.70;;
65835;SDS011;52595;51.608;7.216;2023-05-10T14:17:33;8.18;;;5.50;;
65835;SDS011;52595;51.608;7.216;2023-05-10T14:19:58;7.97;;;5.63;;
65835;SDS011;52595;51.608;7.216;2023-05-10T14:22:23;9.52;;;5.57;;
65835;SDS011;52595;51.608;7.216;2023-05-10T14:24:49;8.25;;;5.20;;
65835;SDS011;52595;51.608;7.216;2023-05-10T14:27:15;9.10;;;5.22;;
65835;SDS011;52595;51.608;7.216;2023-05-10T14:29:40;8.93;;;5.35;;
65835;SDS011;52595;51.608;7.216;2023-05-10T14:32:06;9.70;;;5.68;;
65835;SDS011;52595;51.608;7.216;2023-05-10T14:34:31;8.93;;;5.38;;
65835;SDS011;52595;51.608;7.216;2023-05-10T14:36:57;9.18;;;5.28;;
65835;SDS011;52595;51.608;7.216;2023-05-10T14:39:23;8.35;;;5.70;;
65835;SDS011;52595;51.608;7.216;2023-05-10T14:41:48;12.65;;;6.20;;
65835;SDS011;52595;51.608;7.216;2023-05-10T14:44:14;11.68;;;6.57;;
65835;SDS011;52595;51.608;7.216;2023-05-10T14:46:40;12.10;;;7.45;;
65835;SDS011;52595;51.608;7.216;2023-05-10T14:49:06;12.60;;;7.40;;
65835;SDS011;52595;51.608;7.216;2023-05-10T14:51:32;11.48;;;7.55;;
65835;SDS011;52595;51.608;7.216;2023-05-10T14:53:57;17.38;;;8.55;;
65835;SDS011;52595;51.608;7.216;2023-05-10T14:56:23;13.35;;;8.88;;
65835;SDS011;52595;51.608;7.216;2023-05-10T14:58:49;13.57;;;8.45;;
65835;SDS011;52595;51.608;7.216;2023-05-10T15:01:14;12.25;;;8.30;;
65835;SDS011;52595;51.608;7.216;2023-05-10T15:03:40;13.05;;;7.70;;
65835;SDS011;52595;51.608;7.216;2023-05-10T15:06:05;11.65;;;8.00;;